sensor_id;sensor_type;location;lat;lon;timestamp;P1;durP1;ratioP1;P2;durP2;ratioP2
64609;SDS011;51019;46.090;6.350;2023-06-14T00:02:16;16.63;;;6.22;;
64609;SDS011;51019;46.090;6.350;2023-06-14T00:04:44;14.27;;;5.72;;
64609;SDS011;51019;46.090;6.350;2023-06-14T00:07:13;18.30;;;6.20;;
64609;SDS011;51019;46.090;6.350;2023-06-14T00:09:41;13.13;;;5.75;;
64609;SDS011;51019;46.090;6.350;2023-06-14T00:12:11;13.77;;;5.82;;
64609;SDS011;51019;46.090;6.350;2023-06-14T00:14:39;16.98;;;5.80;;
64609;SDS011;51019;46.090;6.350;2023-06-14T00:17:07;14.82;;;5.90;;
64609;SDS011;51019;46.090;6.350;2023-06-14T00:19:34;14.27;;;6.15;;
64609;SDS011;51019;46.090;6.350;2023-06-14T00:22:04;14.15;;;6.10;;
64609;SDS011;51019;46.090;6.350;2023-06-14T00:24:32;13.60;;;5.97;;
64609;SDS011;51019;46.090;6.350;2023-06-14T00:27:00;14.48;;;5.72;;
64609;SDS011;51019;46.090;6.350;2023-06-14T00:29:29;12.60;;;5.45;;
64609;SDS011;51019;46.090;6.350;2023-06-14T00:31:57;14.98;;;5.60;;
64609;SDS011;51019;46.090;6.350;2023-06-14T00:34:25;13.82;;;5.65;;
64609;SDS011;51019;46.090;6.350;2023-06-14T00:36:53;12.98;;;5.65;;
64609;SDS011;51019;46.090;6.350;2023-06-14T00:39:20;13.32;;;5.95;;
64609;SDS011;51019;46.090;6.350;2023-06-14T00:41:48;13.35;;;5.63;;
64609;SDS011;51019;46.090;6.350;2023-06-14T00:44:16;12.90;;;5.65;;
64609;SDS011;51019;46.090;6.350;2023-06-14T00:46:46;17.40;;;6.28;;
64609;SDS011;51019;46.090;6.350;2023-06-14T00:49:14;13.02;;;5.30;;
64609;SDS011;51019;46.090;6.350;2023-06-14T00:51:44;12.88;;;5.47;;
64609;SDS011;51019;46.090;6.350;2023-06-14T00:54:12;16.98;;;6.32;;
64609;SDS011;51019;46.090;6.350;2023-06-14T00:56:40;14.23;;;6.20;;
64609;SDS011;51019;46.090;6.350;2023-06-14T00:59:10;15.40;;;6.15;;
64609;SDS011;51019;46.090;6.350;2023-06-14T01:01:38;17.88;;;6.97;;
64609;SDS011;51019;46.090;6.350;2023-06-14T01:04:07;15.15;;;6.18;;
64609;SDS011;51019;46.090;6.350;2023-06-14T01:06:36;14.70;;;6.32;;
64609;SDS011;51019;46.090;6.350;2023-06-14T01:09:14;15.95;;;6.60;;
64609;SDS011;51019;46.090;6.350;2023-06-14T01:11:59;14.05;;;6.25;;
64609;SDS011;51019;46.090;6.350;2023-06-14T01:14:31;13.23;;;6.10;;
64609;SDS011;51019;46.090;6.350;2023-06-14T01:17:01;14.77;;;5.90;;
64609;SDS011;51019;46.090;6.350;2023-06-14T01:19:32;16.48;;;6.57;;
64609;SDS011;51019;46.090;6.350;2023-06-14T01:22:00;13.05;;;5.35;;
64609;SDS011;51019;46.090;6.350;2023-06-14T01:24:31;13.30;;;5.72;;
64609;SDS011;51019;46.090;6.350;2023-06-14T01:27:00;16.40;;;6.13;;
64609;SDS011;51019;46.090;6.350;2023-06-14T01:29:29;14.90;;;6.20;;
64609;SDS011;51019;46.090;6.350;2023-06-14T01:31:58;15.45;;;6.07;;
64609;SDS011;51019;46.090;6.350;2023-06-14T01:34:26;16.52;;;6.60;;
64609;SDS011;51019;46.090;6.350;2023-06-14T01:36:53;14.73;;;6.60;;
64609;SDS011;51019;46.090;6.350;2023-06-14T01:39:22;15.07;;;6.47;;
64609;SDS011;51019;46.090;6.350;2023-06-14T01:41:52;17.30;;;6.85;;
64609;SDS011;51019;46.090;6.350;2023-06-14T01:44:20;15.15;;;6.65;;
64609;SDS011;51019;46.090;6.350;2023-06-14T01:46:49;15.98;;;6.55;;
64609;SDS011;51019;46.090;6.350;2023-06-14T01:49:17;15.65;;;6.82;;
64609;SDS011;51019;46.090;6.350;2023-06-14T01:51:45;14.07;;;6.47;;
64609;SDS011;51019;46.090;6.350;2023-06-14T01:54:12;13.98;;;6.60;;
64609;SDS011;51019;46.090;6.350;2023-06-14T01:56:40;15.55;;;6.72;;
64609;SDS011;51019;46.090;6.350;2023-06-14T01:59:09;15.48;;;6.53;;
64609;SDS011;51019;46.090;6.350;2023-06-14T02:01:37;15.95;;;6.40;;
64609;SDS011;51019;46.090;6.350;2023-06-14T02:04:06;17.77;;;6.93;;
64609;SDS011;51019;46.090;6.350;2023-06-14T02:06:37;14.23;;;6.40;;
64609;SDS011;51019;46.090;6.350;2023-06-14T02:09:05;16.45;;;6.80;;
64609;SDS011;51019;46.090;6.350;2023-06-14T02:11:33;15.30;;;6.15;;
64609;SDS011;51019;46.090;6.350;2023-06-14T02:14:01;15.85;;;6.82;;
64609;SDS011;51019;46.090;6.350;2023-06-14T02:16:31;16.80;;;7.05;;
64609;SDS011;51019;46.090;6.350;2023-06-14T02:19:00;16.10;;;7.65;;
64609;SDS011;51019;46.090;6.350;2023-06-14T02:21:29;14.85;;;6.65;;
64609;SDS011;51019;46.090;6.350;2023-06-14T02:23:57;16.48;;;7.35;;
64609;SDS011;51019;46.090;6.350;2023-06-14T02:26:26;14.23;;;6.60;;
64609;SDS011;51019;46.090;6.350;2023-06-14T02:28:55;15.27;;;6.90;;
64609;SDS011;51019;46.090;6.350;2023-06-14T02:31:23;16.25;;;7.28;;
64609;SDS011;51019;46.090;6.350;2023-06-14T02:33:53;16.90;;;7.40;;
64609;SDS011;51019;46.090;6.350;2023-06-14T02:36:20;15.48;;;6.75;;
64609;SDS011;51019;46.090;6.350;2023-06-14T02:38:48;16.77;;;7.07;;
64609;SDS011;51019;46.090;6.350;2023-06-14T02:41:16;14.88;;;7.38;;
64609;SDS011;51019;46.090;6.350;2023-06-14T02:43:43;15.13;;;7.25;;
64609;SDS011;51019;46.090;6.350;2023-06-14T02:46:11;14.90;;;7.28;;
64609;SDS011;51019;46.090;6.350;2023-06-14T02:48:40;17.52;;;8.13;;
64609;SDS011;51019;46.090;6.350;2023-06-14T02:51:09;15.07;;;7.43;;
64609;SDS011;51019;46.090;6.350;2023-06-14T02:53:37;16.98;;;7.70;;
64609;SDS011;51019;46.090;6.350;2023-06-14T02:56:05;14.07;;;6.40;;
64609;SDS011;51019;46.090;6.350;2023-06-14T02:58:33;18.88;;;8.48;;
64609;SDS011;51019;46.090;6.350;2023-06-14T03:01:01;14.63;;;6.80;;
64609;SDS011;51019;46.090;6.350;2023-06-14T03:03:29;17.42;;;6.90;;
64609;SDS011;51019;46.090;6.350;2023-06-14T03:05:56;15.02;;;6.78;;
64609;SDS011;51019;46.090;6.350;2023-06-14T03:08:32;14.63;;;6.70;;
64609;SDS011;51019;46.090;6.350;2023-06-14T03:11:03;17.13;;;7.40;;
64609;SDS011;51019;46.090;6.350;2023-06-14T03:13:32;16.08;;;7.40;;
64609;SDS011;51019;46.090;6.350;2023-06-14T03:15:59;18.13;;;7.72;;
64609;SDS011;51019;46.090;6.350;2023-06-14T03:18:29;16.33;;;7.00;;
64609;SDS011;51019;46.090;6.350;2023-06-14T03:21:00;15.15;;;6.70;;
64609;SDS011;51019;46.090;6.350;2023-06-14T03:23:28;15.60;;;7.00;;
64609;SDS011;51019;46.090;6.350;2023-06-14T03:25:59;15.02;;;6.75;;
64609;SDS011;51019;46.090;6.350;2023-06-14T03:28:31;15.02;;;7.18;;
64609;SDS011;51019;46.090;6.350;2023-06-14T03:30:59;15.52;;;7.15;;
64609;SDS011;51019;46.090;6.350;2023-06-14T03:33:27;19.98;;;6.90;;
64609;SDS011;51019;46.090;6.350;2023-06-14T03:35:55;15.35;;;6.93;;
64609;SDS011;51019;46.090;6.350;2023-06-14T03:38:23;15.65;;;6.97;;
64609;SDS011;51019;46.090;6.350;2023-06-14T03:40:50;15.75;;;7.20;;
64609;SDS011;51019;46.090;6.350;2023-06-14T03:43:20;17.15;;;7.53;;
64609;SDS011;51019;46.090;6.350;2023-06-14T03:45:48;15.48;;;7.40;;
64609;SDS011;51019;46.090;6.350;2023-06-14T03:48:16;15.80;;;7.50;;
64609;SDS011;51019;46.090;6.350;2023-06-14T03:50:44;16.35;;;7.75;;
64609;SDS011;51019;46.090;6.350;2023-06-14T03:53:12;16.42;;;7.65;;
64609;SDS011;51019;46.090;6.350;2023-06-14T03:55:41;15.68;;;7.45;;
64609;SDS011;51019;46.090;6.350;2023-06-14T03:58:13;15.95;;;7.72;;
64609;SDS011;51019;46.090;6.350;2023-06-14T04:00:43;18.38;;;7.32;;
64609;SDS011;51019;46.090;6.350;2023-06-14T04:03:10;17.20;;;7.40;;
64609;SDS011;51019;46.090;6.350;2023-06-14T04:05:40;16.50;;;7.50;;
64609;SDS011;51019;46.090;6.350;2023-06-14T04:08:14;19.33;;;7.75;;
64609;SDS011;51019;46.090;6.350;2023-06-14T04:10:44;15.02;;;7.38;;
64609;SDS011;51019;46.090;6.350;2023-06-14T04:13:12;16.33;;;7.55;;
64609;SDS011;51019;46.090;6.350;2023-06-14T04:15:40;15.40;;;7.45;;
64609;SDS011;51019;46.090;6.350;2023-06-14T04:18:11;20.55;;;7.18;;
64609;SDS011;51019;46.090;6.350;2023-06-14T04:20:39;14.25;;;6.75;;
64609;SDS011;51019;46.090;6.350;2023-06-14T04:23:12;16.48;;;7.30;;
64609;SDS011;51019;46.090;6.350;2023-06-14T04:25:40;14.25;;;6.72;;
64609;SDS011;51019;46.090;6.350;2023-06-14T04:28:10;14.82;;;7.10;;
64609;SDS011;51019;46.090;6.350;2023-06-14T04:30:45;17.02;;;8.18;;
64609;SDS011;51019;46.090;6.350;2023-06-14T04:33:15;15.15;;;6.60;;
64609;SDS011;51019;46.090;6.350;2023-06-14T04:35:43;15.88;;;7.45;;
64609;SDS011;51019;46.090;6.350;2023-06-14T04:38:12;15.77;;;7.25;;
64609;SDS011;51019;46.090;6.350;2023-06-14T04:40:41;15.48;;;7.25;;
64609;SDS011;51019;46.090;6.350;2023-06-14T04:43:11;18.27;;;7.25;;
64609;SDS011;51019;46.090;6.350;2023-06-14T04:45:42;17.02;;;7.30;;
64609;SDS011;51019;46.090;6.350;2023-06-14T04:48:11;15.02;;;7.85;;
64609;SDS011;51019;46.090;6.350;2023-06-14T04:50:41;17.80;;;8.13;;
64609;SDS011;51019;46.090;6.350;2023-06-14T04:53:08;16.30;;;7.68;;
64609;SDS011;51019;46.090;6.350;2023-06-14T04:55:36;17.15;;;8.57;;
64609;SDS011;51019;46.090;6.350;2023-06-14T04:58:05;16.67;;;8.25;;
64609;SDS011;51019;46.090;6.350;2023-06-14T05:00:32;15.70;;;7.45;;
64609;SDS011;51019;46.090;6.350;2023-06-14T05:03:00;18.63;;;7.90;;
64609;SDS011;51019;46.090;6.350;2023-06-14T05:05:28;16.67;;;7.53;;
64609;SDS011;51019;46.090;6.350;2023-06-14T05:07:57;16.08;;;7.35;;
64609;SDS011;51019;46.090;6.350;2023-06-14T05:10:24;15.40;;;7.68;;
64609;SDS011;51019;46.090;6.350;2023-06-14T05:12:52;17.30;;;7.88;;
64609;SDS011;51019;46.090;6.350;2023-06-14T05:15:19;18.08;;;8.55;;
64609;SDS011;51019;46.090;6.350;2023-06-14T05:17:50;17.83;;;8.13;;
64609;SDS011;51019;46.090;6.350;2023-06-14T05:20:20;17.77;;;8.23;;
64609;SDS011;51019;46.090;6.350;2023-06-14T05:22:50;16.77;;;7.65;;
64609;SDS011;51019;46.090;6.350;2023-06-14T05:25:20;18.60;;;7.85;;
64609;SDS011;51019;46.090;6.350;2023-06-14T05:27:47;19.58;;;8.48;;
64609;SDS011;51019;46.090;6.350;2023-06-14T05:30:16;19.45;;;8.13;;
64609;SDS011;51019;46.090;6.350;2023-06-14T05:32:43;14.70;;;7.47;;
64609;SDS011;51019;46.090;6.350;2023-06-14T05:35:11;15.75;;;7.72;;
64609;SDS011;51019;46.090;6.350;2023-06-14T05:37:39;19.80;;;7.10;;
64609;SDS011;51019;46.090;6.350;2023-06-14T05:40:10;18.27;;;7.20;;
64609;SDS011;51019;46.090;6.350;2023-06-14T05:42:39;16.98;;;7.18;;
64609;SDS011;51019;46.090;6.350;2023-06-14T05:45:07;17.23;;;7.25;;
64609;SDS011;51019;46.090;6.350;2023-06-14T05:47:35;16.58;;;6.63;;
64609;SDS011;51019;46.090;6.350;2023-06-14T05:50:03;16.33;;;6.80;;
64609;SDS011;51019;46.090;6.350;2023-06-14T05:52:31;15.60;;;7.43;;
64609;SDS011;51019;46.090;6.350;2023-06-14T05:54:58;17.02;;;7.43;;
64609;SDS011;51019;46.090;6.350;2023-06-14T05:57:25;18.17;;;6.95;;
64609;SDS011;51019;46.090;6.350;2023-06-14T05:59:54;17.83;;;6.97;;
64609;SDS011;51019;46.090;6.350;2023-06-14T06:02:22;17.98;;;6.78;;
64609;SDS011;51019;46.090;6.350;2023-06-14T06:04:49;15.20;;;6.97;;
64609;SDS011;51019;46.090;6.350;2023-06-14T06:07:16;14.75;;;6.57;;
64609;SDS011;51019;46.090;6.350;2023-06-14T06:09:44;13.35;;;6.07;;
64609;SDS011;51019;46.090;6.350;2023-06-14T06:12:13;13.57;;;6.00;;
64609;SDS011;51019;46.090;6.350;2023-06-14T06:14:40;16.80;;;6.03;;
64609;SDS011;51019;46.090;6.350;2023-06-14T06:17:10;14.10;;;5.82;;
64609;SDS011;51019;46.090;6.350;2023-06-14T06:19:37;12.98;;;5.53;;
64609;SDS011;51019;46.090;6.350;2023-06-14T06:22:05;12.93;;;5.20;;
64609;SDS011;51019;46.090;6.350;2023-06-14T06:24:33;13.77;;;5.10;;
64609;SDS011;51019;46.090;6.350;2023-06-14T06:27:00;12.60;;;5.05;;
64609;SDS011;51019;46.090;6.350;2023-06-14T06:29:29;13.32;;;5.60;;
64609;SDS011;51019;46.090;6.350;2023-06-14T06:31:56;16.27;;;5.35;;
64609;SDS011;51019;46.090;6.350;2023-06-14T06:34:26;14.02;;;5.72;;
64609;SDS011;51019;46.090;6.350;2023-06-14T06:36:53;14.23;;;5.80;;
64609;SDS011;51019;46.090;6.350;2023-06-14T06:39:21;12.95;;;6.15;;
64609;SDS011;51019;46.090;6.350;2023-06-14T06:41:48;13.27;;;5.78;;
64609;SDS011;51019;46.090;6.350;2023-06-14T06:44:15;15.13;;;7.07;;
64609;SDS011;51019;46.090;6.350;2023-06-14T06:46:43;15.90;;;5.93;;
64609;SDS011;51019;46.090;6.350;2023-06-14T06:49:10;14.77;;;6.13;;
64609;SDS011;51019;46.090;6.350;2023-06-14T06:51:41;14.77;;;6.25;;
64609;SDS011;51019;46.090;6.350;2023-06-14T06:54:10;16.60;;;6.37;;
64609;SDS011;51019;46.090;6.350;2023-06-14T06:56:38;14.95;;;7.00;;
64609;SDS011;51019;46.090;6.350;2023-06-14T06:59:05;15.15;;;6.25;;
64609;SDS011;51019;46.090;6.350;2023-06-14T07:01:32;15.95;;;6.47;;
64609;SDS011;51019;46.090;6.350;2023-06-14T07:04:01;13.65;;;6.40;;
64609;SDS011;51019;46.090;6.350;2023-06-14T07:06:29;13.75;;;5.47;;
64609;SDS011;51019;46.090;6.350;2023-06-14T07:08:58;13.48;;;5.00;;
64609;SDS011;51019;46.090;6.350;2023-06-14T07:11:26;14.32;;;5.50;;
64609;SDS011;51019;46.090;6.350;2023-06-14T07:13:53;14.50;;;6.00;;
64609;SDS011;51019;46.090;6.350;2023-06-14T07:16:21;14.00;;;5.82;;
64609;SDS011;51019;46.090;6.350;2023-06-14T07:18:49;13.05;;;5.82;;
64609;SDS011;51019;46.090;6.350;2023-06-14T07:21:17;14.05;;;5.78;;
64609;SDS011;51019;46.090;6.350;2023-06-14T07:23:44;13.43;;;5.95;;
64609;SDS011;51019;46.090;6.350;2023-06-14T07:26:13;15.05;;;6.05;;
64609;SDS011;51019;46.090;6.350;2023-06-14T07:28:41;13.27;;;5.05;;
64609;SDS011;51019;46.090;6.350;2023-06-14T07:31:10;13.45;;;5.20;;
64609;SDS011;51019;46.090;6.350;2023-06-14T07:33:37;15.48;;;5.57;;
64609;SDS011;51019;46.090;6.350;2023-06-14T07:36:05;15.07;;;5.93;;
64609;SDS011;51019;46.090;6.350;2023-06-14T07:38:32;14.07;;;5.60;;
64609;SDS011;51019;46.090;6.350;2023-06-14T07:40:59;17.80;;;5.68;;
64609;SDS011;51019;46.090;6.350;2023-06-14T07:43:29;14.55;;;5.25;;
64609;SDS011;51019;46.090;6.350;2023-06-14T07:45:56;13.65;;;5.15;;
64609;SDS011;51019;46.090;6.350;2023-06-14T07:48:24;13.75;;;5.00;;
64609;SDS011;51019;46.090;6.350;2023-06-14T07:50:51;13.93;;;5.07;;
64609;SDS011;51019;46.090;6.350;2023-06-14T07:53:18;12.93;;;4.97;;
64609;SDS011;51019;46.090;6.350;2023-06-14T07:55:47;13.25;;;5.13;;
64609;SDS011;51019;46.090;6.350;2023-06-14T07:58:16;14.70;;;5.45;;
64609;SDS011;51019;46.090;6.350;2023-06-14T08:00:46;13.75;;;5.38;;
64609;SDS011;51019;46.090;6.350;2023-06-14T08:03:13;15.30;;;5.53;;
64609;SDS011;51019;46.090;6.350;2023-06-14T08:05:40;13.73;;;5.00;;
64609;SDS011;51019;46.090;6.350;2023-06-14T08:08:08;15.48;;;5.32;;
64609;SDS011;51019;46.090;6.350;2023-06-14T08:10:35;13.65;;;4.50;;
64609;SDS011;51019;46.090;6.350;2023-06-14T08:13:02;12.55;;;4.78;;
64609;SDS011;51019;46.090;6.350;2023-06-14T08:15:30;13.52;;;4.85;;
64609;SDS011;51019;46.090;6.350;2023-06-14T08:18:00;16.80;;;5.13;;
64609;SDS011;51019;46.090;6.350;2023-06-14T08:20:27;13.38;;;4.32;;
64609;SDS011;51019;46.090;6.350;2023-06-14T08:22:56;11.40;;;4.50;;
64609;SDS011;51019;46.090;6.350;2023-06-14T08:25:24;15.48;;;4.60;;
64609;SDS011;51019;46.090;6.350;2023-06-14T08:27:51;15.32;;;5.28;;
64609;SDS011;51019;46.090;6.350;2023-06-14T08:30:19;14.45;;;4.47;;
64609;SDS011;51019;46.090;6.350;2023-06-14T08:32:46;11.15;;;4.15;;
64609;SDS011;51019;46.090;6.350;2023-06-14T08:35:16;12.88;;;4.95;;
64609;SDS011;51019;46.090;6.350;2023-06-14T08:37:44;11.50;;;4.30;;
64609;SDS011;51019;46.090;6.350;2023-06-14T08:40:16;13.20;;;4.50;;
64609;SDS011;51019;46.090;6.350;2023-06-14T08:42:47;15.02;;;5.80;;
64609;SDS011;51019;46.090;6.350;2023-06-14T08:45:18;14.23;;;4.68;;
64609;SDS011;51019;46.090;6.350;2023-06-14T08:47:45;12.20;;;4.55;;
64609;SDS011;51019;46.090;6.350;2023-06-14T08:50:19;15.15;;;4.40;;
64609;SDS011;51019;46.090;6.350;2023-06-14T08:52:50;13.93;;;4.75;;
64609;SDS011;51019;46.090;6.350;2023-06-14T08:55:22;13.38;;;4.72;;
64609;SDS011;51019;46.090;6.350;2023-06-14T08:57:53;12.73;;;3.97;;
64609;SDS011;51019;46.090;6.350;2023-06-14T09:00:22;12.40;;;4.40;;
64609;SDS011;51019;46.090;6.350;2023-06-14T09:02:50;12.02;;;4.45;;
64609;SDS011;51019;46.090;6.350;2023-06-14T09:05:24;15.32;;;4.72;;
64609;SDS011;51019;46.090;6.350;2023-06-14T09:07:53;13.27;;;4.65;;
64609;SDS011;51019;46.090;6.350;2023-06-14T09:10:23;13.75;;;4.70;;
64609;SDS011;51019;46.090;6.350;2023-06-14T09:12:54;17.60;;;5.20;;
64609;SDS011;51019;46.090;6.350;2023-06-14T09:15:22;12.60;;;4.43;;
64609;SDS011;51019;46.090;6.350;2023-06-14T09:17:49;13.13;;;4.50;;
64609;SDS011;51019;46.090;6.350;2023-06-14T09:20:17;12.27;;;4.53;;
64609;SDS011;51019;46.090;6.350;2023-06-14T09:22:46;12.60;;;4.40;;
64609;SDS011;51019;46.090;6.350;2023-06-14T09:25:13;13.30;;;4.20;;
64609;SDS011;51019;46.090;6.350;2023-06-14T09:27:41;12.75;;;5.40;;
64609;SDS011;51019;46.090;6.350;2023-06-14T09:30:09;13.18;;;4.47;;
64609;SDS011;51019;46.090;6.350;2023-06-14T09:32:38;13.73;;;4.20;;
64609;SDS011;51019;46.090;6.350;2023-06-14T09:35:07;11.65;;;4.30;;
64609;SDS011;51019;46.090;6.350;2023-06-14T09:37:35;11.00;;;3.72;;
64609;SDS011;51019;46.090;6.350;2023-06-14T09:40:07;11.30;;;4.22;;
64609;SDS011;51019;46.090;6.350;2023-06-14T09:42:36;12.30;;;4.70;;
64609;SDS011;51019;46.090;6.350;2023-06-14T09:45:06;13.55;;;4.72;;
64609;SDS011;51019;46.090;6.350;2023-06-14T09:47:36;11.30;;;4.35;;
64609;SDS011;51019;46.090;6.350;2023-06-14T09:50:03;14.00;;;4.78;;
64609;SDS011;51019;46.090;6.350;2023-06-14T09:52:31;13.43;;;4.53;;
64609;SDS011;51019;46.090;6.350;2023-06-14T09:54:59;15.45;;;4.38;;
64609;SDS011;51019;46.090;6.350;2023-06-14T09:57:33;15.02;;;4.70;;
64609;SDS011;51019;46.090;6.350;2023-06-14T10:00:01;12.05;;;3.97;;
64609;SDS011;51019;46.090;6.350;2023-06-14T10:02:35;14.38;;;4.40;;
64609;SDS011;51019;46.090;6.350;2023-06-14T10:05:04;13.13;;;4.10;;
64609;SDS011;51019;46.090;6.350;2023-06-14T10:07:35;13.45;;;4.22;;
64609;SDS011;51019;46.090;6.350;2023-06-14T10:10:09;14.50;;;5.32;;
64609;SDS011;51019;46.090;6.350;2023-06-14T10:12:39;13.05;;;4.13;;
64609;SDS011;51019;46.090;6.350;2023-06-14T10:15:08;13.93;;;4.63;;
64609;SDS011;51019;46.090;6.350;2023-06-14T10:17:40;14.75;;;4.28;;
64609;SDS011;51019;46.090;6.350;2023-06-14T10:20:16;13.27;;;4.60;;
64609;SDS011;51019;46.090;6.350;2023-06-14T10:22:59;13.48;;;4.13;;
64609;SDS011;51019;46.090;6.350;2023-06-14T10:25:30;15.73;;;4.40;;
64609;SDS011;51019;46.090;6.350;2023-06-14T10:31:02;15.73;;;4.53;;
64609;SDS011;51019;46.090;6.350;2023-06-14T10:33:31;11.82;;;4.22;;
64609;SDS011;51019;46.090;6.350;2023-06-14T10:36:24;11.43;;;4.43;;
64609;SDS011;51019;46.090;6.350;2023-06-14T10:39:00;12.45;;;4.22;;
64609;SDS011;51019;46.090;6.350;2023-06-14T10:41:30;11.05;;;3.90;;
64609;SDS011;51019;46.090;6.350;2023-06-14T10:47:28;13.35;;;4.00;;
64609;SDS011;51019;46.090;6.350;2023-06-14T10:49:57;11.63;;;4.03;;
64609;SDS011;51019;46.090;6.350;2023-06-14T10:52:33;13.10;;;4.10;;
64609;SDS011;51019;46.090;6.350;2023-06-14T10:55:02;12.93;;;3.90;;
64609;SDS011;51019;46.090;6.350;2023-06-14T11:00:02;10.77;;;4.05;;
64609;SDS011;51019;46.090;6.350;2023-06-14T11:05:57;12.25;;;4.60;;
64609;SDS011;51019;46.090;6.350;2023-06-14T11:08:37;12.13;;;4.07;;
64609;SDS011;51019;46.090;6.350;2023-06-14T11:11:13;13.05;;;4.03;;
64609;SDS011;51019;46.090;6.350;2023-06-14T11:13:44;11.05;;;4.25;;
64609;SDS011;51019;46.090;6.350;2023-06-14T11:16:12;11.50;;;3.78;;
64609;SDS011;51019;46.090;6.350;2023-06-14T11:18:40;11.75;;;3.72;;
64609;SDS011;51019;46.090;6.350;2023-06-14T11:21:09;12.70;;;3.78;;
64609;SDS011;51019;46.090;6.350;2023-06-14T11:23:39;11.23;;;3.65;;
64609;SDS011;51019;46.090;6.350;2023-06-14T11:26:06;13.77;;;3.60;;
64609;SDS011;51019;46.090;6.350;2023-06-14T11:28:35;12.32;;;3.67;;
64609;SDS011;51019;46.090;6.350;2023-06-14T11:31:03;11.43;;;4.10;;
64609;SDS011;51019;46.090;6.350;2023-06-14T11:33:31;12.85;;;3.80;;
64609;SDS011;51019;46.090;6.350;2023-06-14T11:35:58;12.90;;;3.95;;
64609;SDS011;51019;46.090;6.350;2023-06-14T11:38:29;12.63;;;4.68;;
64609;SDS011;51019;46.090;6.350;2023-06-14T11:40:59;12.27;;;4.07;;
64609;SDS011;51019;46.090;6.350;2023-06-14T11:43:27;11.80;;;3.92;;
64609;SDS011;51019;46.090;6.350;2023-06-14T11:45:56;11.93;;;4.10;;
64609;SDS011;51019;46.090;6.350;2023-06-14T11:48:35;13.32;;;4.10;;
64609;SDS011;51019;46.090;6.350;2023-06-14T11:51:03;12.07;;;4.18;;
64609;SDS011;51019;46.090;6.350;2023-06-14T11:53:31;15.82;;;4.10;;
64609;SDS011;51019;46.090;6.350;2023-06-14T11:55:59;11.40;;;4.25;;
64609;SDS011;51019;46.090;6.350;2023-06-14T11:58:28;11.85;;;3.65;;
64609;SDS011;51019;46.090;6.350;2023-06-14T12:00:56;11.80;;;3.95;;
64609;SDS011;51019;46.090;6.350;2023-06-14T12:03:23;10.30;;;3.60;;
64609;SDS011;51019;46.090;6.350;2023-06-14T12:06:01;10.40;;;3.80;;
64609;SDS011;51019;46.090;6.350;2023-06-14T12:08:34;15.02;;;4.07;;
64609;SDS011;51019;46.090;6.350;2023-06-14T12:11:04;10.77;;;3.55;;
64609;SDS011;51019;46.090;6.350;2023-06-14T12:13:33;14.13;;;4.72;;
64609;SDS011;51019;46.090;6.350;2023-06-14T12:16:01;9.93;;;3.60;;
64609;SDS011;51019;46.090;6.350;2023-06-14T12:18:32;11.02;;;3.83;;
64609;SDS011;51019;46.090;6.350;2023-06-14T12:21:00;10.80;;;3.70;;
64609;SDS011;51019;46.090;6.350;2023-06-14T12:23:44;10.52;;;3.35;;
64609;SDS011;51019;46.090;6.350;2023-06-14T12:26:13;10.95;;;3.65;;
64609;SDS011;51019;46.090;6.350;2023-06-14T12:28:41;12.65;;;3.95;;
64609;SDS011;51019;46.090;6.350;2023-06-14T12:31:10;12.25;;;4.00;;
64609;SDS011;51019;46.090;6.350;2023-06-14T12:33:39;12.35;;;3.90;;
64609;SDS011;51019;46.090;6.350;2023-06-14T12:36:07;12.82;;;3.92;;
64609;SDS011;51019;46.090;6.350;2023-06-14T12:38:35;11.45;;;3.30;;
64609;SDS011;51019;46.090;6.350;2023-06-14T12:41:04;12.65;;;4.03;;
64609;SDS011;51019;46.090;6.350;2023-06-14T12:43:32;11.35;;;3.80;;
64609;SDS011;51019;46.090;6.350;2023-06-14T12:46:00;14.07;;;4.00;;
64609;SDS011;51019;46.090;6.350;2023-06-14T12:48:27;13.63;;;3.80;;
64609;SDS011;51019;46.090;6.350;2023-06-14T12:50:56;12.85;;;3.97;;
64609;SDS011;51019;46.090;6.350;2023-06-14T12:53:23;11.10;;;3.65;;
64609;SDS011;51019;46.090;6.350;2023-06-14T12:55:51;11.45;;;4.00;;
64609;SDS011;51019;46.090;6.350;2023-06-14T12:58:20;12.45;;;4.00;;
64609;SDS011;51019;46.090;6.350;2023-06-14T13:00:48;12.23;;;3.75;;
64609;SDS011;51019;46.090;6.350;2023-06-14T13:03:15;10.82;;;3.60;;
64609;SDS011;51019;46.090;6.350;2023-06-14T13:05:43;10.77;;;4.00;;
64609;SDS011;51019;46.090;6.350;2023-06-14T13:08:10;10.25;;;3.42;;
64609;SDS011;51019;46.090;6.350;2023-06-14T13:10:37;11.85;;;3.75;;
64609;SDS011;51019;46.090;6.350;2023-06-14T13:13:05;13.40;;;4.10;;
64609;SDS011;51019;46.090;6.350;2023-06-14T13:15:34;12.02;;;3.97;;
64609;SDS011;51019;46.090;6.350;2023-06-14T13:18:01;13.57;;;4.05;;
64609;SDS011;51019;46.090;6.350;2023-06-14T13:20:28;10.75;;;3.65;;
64609;SDS011;51019;46.090;6.350;2023-06-14T13:22:56;11.23;;;3.63;;
64609;SDS011;51019;46.090;6.350;2023-06-14T13:25:23;12.30;;;4.00;;
64609;SDS011;51019;46.090;6.350;2023-06-14T13:27:50;13.57;;;3.85;;
64609;SDS011;51019;46.090;6.350;2023-06-14T13:30:17;18.02;;;4.15;;
64609;SDS011;51019;46.090;6.350;2023-06-14T13:32:46;13.02;;;3.92;;
64609;SDS011;51019;46.090;6.350;2023-06-14T13:35:14;13.20;;;4.05;;
64609;SDS011;51019;46.090;6.350;2023-06-14T13:37:41;15.55;;;4.20;;
64609;SDS011;51019;46.090;6.350;2023-06-14T13:40:08;10.38;;;3.60;;
64609;SDS011;51019;46.090;6.350;2023-06-14T13:42:36;13.43;;;3.80;;
64609;SDS011;51019;46.090;6.350;2023-06-14T13:45:05;10.90;;;3.88;;
64609;SDS011;51019;46.090;6.350;2023-06-14T13:47:33;11.90;;;3.80;;
64609;SDS011;51019;46.090;6.350;2023-06-14T13:50:03;12.63;;;4.05;;
64609;SDS011;51019;46.090;6.350;2023-06-14T13:52:31;13.35;;;4.00;;
64609;SDS011;51019;46.090;6.350;2023-06-14T13:54:58;11.70;;;3.95;;
64609;SDS011;51019;46.090;6.350;2023-06-14T13:57:26;13.45;;;4.00;;
64609;SDS011;51019;46.090;6.350;2023-06-14T13:59:53;11.77;;;3.80;;
64609;SDS011;51019;46.090;6.350;2023-06-14T14:04:53;11.32;;;3.35;;
64609;SDS011;51019;46.090;6.350;2023-06-14T14:07:22;11.15;;;3.67;;
64609;SDS011;51019;46.090;6.350;2023-06-14T14:09:49;13.00;;;3.70;;
64609;SDS011;51019;46.090;6.350;2023-06-14T14:12:18;12.77;;;4.13;;
64609;SDS011;51019;46.090;6.350;2023-06-14T14:14:45;11.27;;;3.70;;
64609;SDS011;51019;46.090;6.350;2023-06-14T14:17:12;10.88;;;3.63;;
64609;SDS011;51019;46.090;6.350;2023-06-14T14:19:40;10.57;;;3.67;;
64609;SDS011;51019;46.090;6.350;2023-06-14T14:22:07;11.70;;;3.88;;
64609;SDS011;51019;46.090;6.350;2023-06-14T14:24:36;13.60;;;3.95;;
64609;SDS011;51019;46.090;6.350;2023-06-14T14:27:03;10.77;;;3.70;;
64609;SDS011;51019;46.090;6.350;2023-06-14T14:29:31;13.25;;;3.95;;
64609;SDS011;51019;46.090;6.350;2023-06-14T14:31:59;12.30;;;3.83;;
64609;SDS011;51019;46.090;6.350;2023-06-14T14:34:26;13.75;;;4.10;;
64609;SDS011;51019;46.090;6.350;2023-06-14T14:36:54;11.13;;;3.70;;
64609;SDS011;51019;46.090;6.350;2023-06-14T14:39:21;13.23;;;3.90;;
64609;SDS011;51019;46.090;6.350;2023-06-14T14:41:51;12.15;;;4.25;;
64609;SDS011;51019;46.090;6.350;2023-06-14T14:44:18;10.55;;;3.38;;
64609;SDS011;51019;46.090;6.350;2023-06-14T14:46:45;14.52;;;3.90;;
64609;SDS011;51019;46.090;6.350;2023-06-14T14:49:12;11.82;;;3.80;;
64609;SDS011;51019;46.090;6.350;2023-06-14T14:51:39;12.65;;;4.20;;
64609;SDS011;51019;46.090;6.350;2023-06-14T14:54:06;12.50;;;4.07;;
64609;SDS011;51019;46.090;6.350;2023-06-14T14:56:34;11.02;;;3.60;;
64609;SDS011;51019;46.090;6.350;2023-06-14T14:59:06;12.65;;;3.95;;